createdAt,value
2023-04-15T00:00:02.802Z,12.60
2023-04-15T00:02:33.690Z,10.50
2023-04-15T00:05:04.809Z,15.80
2023-04-15T00:10:04.888Z,12.10
2023-04-15T00:12:35.515Z,13.30
2023-04-15T00:15:09.587Z,15.30
2023-04-15T00:17:40.286Z,10.80
2023-04-15T00:20:13.453Z,15.40
2023-04-15T00:22:44.115Z,13.00
2023-04-15T00:25:14.848Z,11.30
2023-04-15T00:27:45.444Z,9.90
2023-04-15T00:30:16.047Z,12.10
2023-04-15T00:32:46.842Z,13.20
2023-04-15T00:35:17.596Z,13.40
2023-04-15T00:37:48.250Z,14.20
2023-04-15T00:40:21.210Z,12.70
2023-04-15T00:42:52.137Z,12.00
2023-04-15T00:45:23.107Z,10.60
2023-04-15T00:50:22.904Z,12.50
2023-04-15T00:52:53.473Z,11.40
2023-04-15T00:55:30.822Z,14.40
2023-04-15T00:58:01.667Z,11.30
2023-04-15T01:00:32.292Z,13.80
2023-04-15T01:03:03.204Z,16.00
2023-04-15T01:08:03.055Z,15.10
2023-04-15T01:10:34.914Z,14.40
2023-04-15T01:13:44.165Z,12.50
2023-04-15T01:16:15.765Z,12.90
2023-04-15T01:18:46.720Z,11.80
2023-04-15T01:21:17.813Z,13.40
2023-04-15T01:23:49.129Z,13.30
2023-04-15T01:26:20.127Z,12.40
2023-04-15T01:31:19.865Z,12.90
2023-04-15T01:33:50.774Z,12.80
2023-04-15T01:36:21.449Z,11.90
2023-04-15T01:38:52.614Z,11.30
2023-04-15T01:41:27.381Z,13.10
2023-04-15T01:43:57.992Z,15.40
2023-04-15T01:46:28.742Z,11.20
2023-04-15T01:48:59.582Z,12.80
2023-04-15T01:51:30.390Z,15.30
2023-04-15T01:54:01.126Z,13.50
2023-04-15T01:56:31.724Z,13.70
2023-04-15T01:59:02.595Z,13.00
2023-04-15T02:04:02.968Z,17.70
2023-04-15T02:06:33.567Z,17.30
2023-04-15T02:09:04.195Z,14.30
2023-04-15T02:11:34.842Z,14.20
2023-04-15T02:14:05.498Z,15.20
2023-04-15T02:16:36.113Z,13.20
2023-04-15T02:19:06.829Z,14.40
2023-04-15T02:21:37.406Z,14.50
2023-04-15T02:24:08.406Z,14.50
2023-04-15T02:29:08.025Z,17.30
2023-04-15T02:31:38.755Z,12.40
2023-04-15T02:34:09.410Z,14.50
2023-04-15T02:36:40.018Z,15.30
2023-04-15T02:39:10.802Z,14.20
2023-04-15T02:41:41.385Z,13.00
2023-04-15T02:44:12.080Z,16.40
2023-04-15T02:46:42.682Z,15.80
2023-04-15T02:49:13.403Z,15.20
2023-04-15T02:51:44.276Z,16.50
2023-04-15T02:54:14.950Z,19.00
2023-04-15T02:56:45.664Z,15.30
2023-04-15T02:59:16.356Z,15.40
2023-04-15T03:01:47.113Z,14.50
2023-04-15T03:04:17.930Z,13.90
2023-04-15T03:06:48.543Z,12.60
2023-04-15T03:09:19.144Z,13.20
2023-04-15T03:11:49.813Z,14.00
2023-04-15T03:14:20.465Z,15.50
2023-04-15T03:16:51.052Z,14.50
2023-04-15T03:19:21.682Z,14.50
2023-04-15T03:21:52.391Z,15.70
2023-04-15T03:24:23.096Z,15.50
2023-04-15T03:26:53.716Z,19.30
2023-04-15T03:29:24.432Z,15.60
2023-04-15T03:31:55.298Z,14.20
2023-04-15T03:34:26.016Z,15.60
2023-04-15T03:36:57.252Z,12.90
2023-04-15T03:39:27.898Z,14.90
2023-04-15T03:41:58.544Z,14.30
2023-04-15T03:44:29.374Z,18.70
2023-04-15T03:46:59.997Z,16.80
2023-04-15T03:49:30.680Z,15.80
2023-04-15T03:52:01.363Z,16.20
2023-04-15T03:54:32.037Z,15.00
2023-04-15T03:57:03.027Z,14.70
2023-04-15T04:02:02.829Z,15.20
2023-04-15T04:04:33.689Z,18.20
2023-04-15T04:07:04.400Z,17.70
2023-04-15T04:09:35.068Z,17.70
2023-04-15T04:12:05.724Z,20.40
2023-04-15T04:14:36.358Z,16.10
2023-04-15T04:17:06.965Z,15.10
2023-04-15T04:19:37.694Z,21.70
2023-04-15T04:22:08.369Z,20.80
2023-04-15T04:24:39.099Z,17.10
2023-04-15T04:27:09.710Z,16.80
2023-04-15T04:29:40.350Z,18.40
2023-04-15T04:32:11.223Z,16.00
2023-04-15T04:34:41.906Z,20.10
2023-04-15T04:37:12.519Z,19.50
2023-04-15T04:39:43.231Z,16.60
2023-04-15T04:42:13.843Z,15.60
2023-04-15T04:44:44.486Z,17.30
2023-04-15T04:47:15.128Z,20.80
2023-04-15T04:49:45.786Z,15.70
2023-04-15T04:52:16.422Z,19.60
2023-04-15T04:54:47.085Z,20.60
2023-04-15T04:57:17.683Z,15.10
2023-04-15T04:59:48.377Z,17.40
2023-04-15T05:02:19.171Z,19.00
2023-04-15T05:04:49.864Z,16.60
2023-04-15T05:07:20.446Z,19.30
2023-04-15T05:09:51.443Z,22.80
2023-04-15T05:12:22.226Z,21.30
2023-04-15T05:14:52.860Z,19.00
2023-04-15T05:17:23.583Z,18.20
2023-04-15T05:19:54.314Z,19.80
2023-04-15T05:22:24.943Z,22.50
2023-04-15T05:24:55.633Z,22.60
2023-04-15T05:27:26.330Z,24.40
2023-04-15T05:29:56.991Z,20.70
2023-04-15T05:32:27.616Z,19.50
2023-04-15T05:34:58.546Z,23.50
2023-04-15T05:39:58.253Z,21.30
2023-04-15T05:42:29.001Z,24.10
2023-04-15T05:44:59.627Z,22.30
2023-04-15T05:47:30.290Z,22.60
2023-04-15T05:50:00.965Z,20.80
2023-04-15T05:52:31.685Z,22.50
2023-04-15T05:55:02.375Z,29.80
2023-04-15T05:57:32.961Z,25.10
2023-04-15T06:00:04.020Z,22.60
2023-04-15T06:05:04.171Z,23.50
2023-04-15T06:07:35.146Z,21.60
2023-04-15T06:10:07.734Z,21.70
2023-04-15T06:12:38.544Z,26.30
2023-04-15T06:15:11.852Z,23.90
2023-04-15T06:17:42.539Z,23.80
2023-04-15T06:20:14.380Z,25.20
2023-04-15T06:22:45.041Z,23.10
2023-04-15T06:25:15.769Z,24.50
2023-04-15T06:27:46.353Z,27.90
2023-04-15T06:30:17.283Z,23.00
2023-04-15T06:32:48.355Z,20.60
2023-04-15T06:37:48.036Z,25.00
2023-04-15T06:40:18.793Z,25.90
2023-04-15T06:42:49.504Z,24.20
2023-04-15T06:45:20.544Z,26.80
2023-04-15T06:50:20.323Z,25.20
2023-04-15T06:52:50.983Z,28.10
2023-04-15T06:55:21.893Z,24.70
2023-04-15T06:57:52.494Z,28.60
2023-04-15T07:00:23.314Z,25.40
2023-04-15T07:02:54.073Z,26.40
2023-04-15T07:05:24.730Z,21.40
2023-04-15T07:07:55.470Z,26.00
2023-04-15T07:10:26.100Z,25.30
2023-04-15T07:12:56.915Z,24.70
2023-04-15T07:15:27.604Z,24.80
2023-04-15T07:17:58.300Z,26.50
2023-04-15T07:20:28.995Z,25.60
2023-04-15T07:22:59.861Z,20.40
2023-04-15T07:25:30.597Z,22.60
2023-04-15T07:28:01.268Z,23.10
2023-04-15T07:30:32.276Z,20.00
2023-04-15T07:35:32.056Z,20.00
2023-04-15T07:38:02.660Z,22.00
2023-04-15T07:40:33.360Z,22.70
2023-04-15T07:43:04.000Z,23.40
2023-04-15T07:45:34.717Z,22.30
2023-04-15T07:48:07.559Z,21.10
2023-04-15T07:50:38.355Z,24.50
2023-04-15T07:53:09.065Z,24.30
2023-04-15T07:55:39.714Z,22.80
2023-04-15T07:58:10.432Z,26.10
2023-04-15T08:00:41.212Z,26.40
2023-04-15T08:03:43.102Z,26.70
2023-04-15T08:06:13.916Z,23.70
2023-04-15T08:08:44.525Z,23.50
2023-04-15T08:11:15.192Z,19.80
2023-04-15T08:13:46.187Z,18.60
2023-04-15T08:18:47.816Z,19.70
2023-04-15T08:23:49.388Z,17.90
2023-04-15T08:26:21.330Z,18.50
2023-04-15T08:28:52.145Z,18.60
2023-04-15T08:31:22.919Z,15.70
2023-04-15T08:33:53.774Z,20.80
2023-04-15T08:36:24.923Z,19.70
2023-04-15T08:38:55.657Z,21.40
2023-04-15T08:41:27.528Z,19.30
2023-04-15T08:44:02.052Z,18.20
2023-04-15T08:46:33.444Z,18.20
2023-04-15T08:49:08.670Z,20.10
2023-04-15T08:51:40.097Z,17.80
2023-04-15T08:54:11.381Z,16.80
2023-04-15T08:56:42.111Z,15.20
2023-04-15T08:59:13.140Z,20.00
2023-04-15T09:01:44.127Z,16.20
2023-04-15T09:04:14.836Z,18.50
2023-04-15T09:06:45.593Z,15.10
2023-04-15T09:09:16.205Z,12.00
2023-04-15T09:11:46.869Z,13.90
2023-04-15T09:14:17.505Z,14.80
2023-04-15T09:17:01.636Z,12.90
2023-04-15T09:19:32.765Z,14.00
2023-04-15T09:22:04.251Z,14.30
2023-04-15T09:24:40.272Z,12.50
2023-04-15T09:27:10.982Z,14.90
2023-04-15T09:29:42.654Z,13.90
2023-04-15T09:32:14.549Z,15.80
2023-04-15T09:34:45.487Z,15.00
2023-04-15T09:40:02.067Z,12.40
2023-04-15T09:42:33.336Z,15.30
2023-04-15T09:45:12.532Z,12.80
2023-04-15T09:47:43.262Z,12.30
2023-04-15T09:50:13.914Z,10.10
2023-04-15T09:52:45.638Z,13.00
2023-04-15T09:55:18.333Z,13.00
2023-04-15T09:57:49.089Z,16.00
2023-04-15T10:00:19.922Z,13.10
2023-04-15T10:05:20.575Z,11.80
2023-04-15T10:07:51.562Z,11.60
2023-04-15T10:12:54.489Z,11.10
2023-04-15T10:15:26.748Z,10.40
2023-04-15T10:17:59.022Z,7.90
2023-04-15T10:20:30.545Z,9.60
2023-04-15T10:23:01.918Z,10.00
2023-04-15T10:25:35.021Z,10.90
2023-04-15T10:28:06.861Z,10.80
2023-04-15T10:30:38.660Z,10.00
2023-04-15T10:33:11.021Z,8.70
2023-04-15T10:35:42.433Z,6.80
2023-04-15T10:38:33.949Z,7.40
2023-04-15T10:41:20.411Z,7.30
2023-04-15T10:43:53.923Z,9.80
2023-04-15T10:46:34.992Z,6.40
2023-04-15T10:51:40.903Z,7.00
2023-04-15T10:54:16.940Z,6.90
2023-04-15T10:57:06.769Z,7.60
2023-04-15T10:59:59.358Z,10.20
2023-04-15T11:02:42.618Z,8.10
2023-04-15T11:05:14.635Z,7.20
2023-04-15T11:07:56.492Z,10.50
2023-04-15T11:10:53.419Z,14.50
2023-04-15T11:13:29.576Z,10.10
2023-04-15T11:16:02.157Z,7.90
2023-04-15T11:18:36.295Z,8.80
2023-04-15T11:21:08.611Z,7.50
2023-04-15T11:23:41.847Z,8.80
2023-04-15T11:26:13.272Z,8.30
2023-04-15T11:28:45.207Z,9.80
2023-04-15T11:31:18.149Z,12.10
2023-04-15T11:33:55.724Z,7.00
2023-04-15T11:36:29.016Z,10.20
2023-04-15T11:39:00.493Z,9.90
2023-04-15T11:41:32.297Z,10.60
2023-04-15T11:44:03.158Z,10.70
2023-04-15T11:46:34.115Z,12.30
2023-04-15T11:49:04.739Z,10.20
2023-04-15T11:51:36.001Z,12.60
2023-04-15T11:54:06.997Z,9.80
2023-04-15T11:56:37.910Z,8.60
2023-04-15T11:59:08.598Z,8.90
2023-04-15T12:01:40.063Z,7.70
2023-04-15T12:04:15.129Z,9.30
2023-04-15T12:06:46.561Z,7.50
2023-04-15T12:09:17.382Z,10.50
2023-04-15T12:11:48.987Z,9.50
2023-04-15T12:14:24.132Z,11.50
2023-04-15T12:16:58.552Z,9.90
2023-04-15T12:19:30.778Z,9.30
2023-04-15T12:22:03.647Z,8.90
2023-04-15T12:24:35.642Z,9.00
2023-04-15T12:27:07.519Z,5.90
2023-04-15T12:29:40.128Z,4.90
2023-04-15T12:32:12.367Z,3.80
2023-04-15T12:34:44.747Z,3.40
2023-04-15T12:37:15.939Z,4.60
2023-04-15T12:39:48.148Z,4.00
2023-04-15T12:42:19.489Z,3.80
2023-04-15T12:44:50.138Z,6.90
2023-04-15T12:47:20.825Z,4.60
2023-04-15T12:49:51.485Z,5.50
2023-04-15T12:52:22.202Z,5.60
2023-04-15T12:54:53.200Z,7.80
2023-04-15T12:57:23.876Z,8.00
2023-04-15T12:59:54.524Z,6.50
2023-04-15T13:02:25.298Z,5.70
2023-04-15T13:04:56.259Z,7.40
2023-04-15T13:07:27.098Z,8.30
2023-04-15T13:12:27.579Z,7.10
2023-04-15T13:14:58.185Z,6.70
2023-04-15T13:17:28.896Z,14.80
2023-04-15T13:19:59.555Z,10.90
2023-04-15T13:22:30.214Z,7.90
2023-04-15T13:25:22.800Z,6.90
2023-04-15T13:27:53.435Z,8.90
2023-04-15T13:30:24.034Z,11.30
2023-04-15T13:32:55.002Z,20.20
2023-04-15T13:37:55.324Z,19.80
2023-04-15T13:40:26.170Z,15.50
2023-04-15T13:42:56.768Z,10.80
2023-04-15T13:45:27.627Z,9.00
2023-04-15T13:50:27.702Z,11.50
2023-04-15T13:52:58.368Z,15.20
2023-04-15T13:55:29.651Z,13.90
2023-04-15T13:58:00.333Z,12.00
2023-04-15T14:00:30.971Z,19.00
2023-04-15T14:03:01.752Z,16.60
2023-04-15T14:08:02.262Z,18.90
2023-04-15T14:10:32.881Z,15.50
2023-04-15T14:13:03.613Z,14.50
2023-04-15T14:15:34.228Z,9.80
2023-04-15T14:18:05.372Z,9.40
2023-04-15T14:20:36.176Z,11.90
2023-04-15T14:23:06.818Z,14.20
2023-04-15T14:25:37.491Z,15.30
2023-04-15T14:28:08.173Z,16.70
2023-04-15T14:30:38.876Z,15.40
2023-04-15T14:33:09.598Z,11.50
2023-04-15T14:35:40.340Z,10.60
2023-04-15T14:38:11.493Z,13.60
2023-04-15T14:40:42.704Z,10.00
2023-04-15T14:43:13.789Z,9.20
2023-04-15T14:54:43.812Z,12.60
2023-04-15T14:57:14.478Z,11.30
2023-04-15T14:59:45.061Z,10.10
2023-04-15T15:02:26.217Z,10.30
2023-04-15T15:05:08.319Z,7.90
2023-04-15T15:07:40.191Z,7.00
2023-04-15T15:10:11.006Z,9.80
2023-04-15T15:12:41.667Z,14.30
2023-04-15T15:15:25.057Z,16.70
2023-04-15T15:17:59.773Z,16.20
2023-04-15T15:20:30.991Z,12.00
2023-04-15T15:23:01.701Z,12.40
2023-04-15T15:25:32.335Z,11.10
2023-04-15T15:28:03.117Z,13.60
2023-04-15T15:30:33.841Z,14.30
2023-04-15T15:33:04.558Z,14.40
2023-04-15T15:35:35.414Z,11.70
2023-04-15T15:38:06.163Z,12.00
2023-04-15T15:40:36.812Z,12.80
2023-04-15T15:43:07.466Z,11.30
2023-04-15T15:45:38.198Z,11.00
2023-04-15T15:48:10.677Z,16.80
2023-04-15T15:53:30.452Z,14.30
2023-04-15T15:56:01.145Z,12.50
2023-04-15T15:58:32.165Z,15.80
2023-04-15T16:01:02.941Z,15.80
2023-04-15T16:03:33.449Z,16.40
2023-04-15T16:06:05.367Z,12.90
2023-04-15T16:08:36.069Z,17.40
2023-04-15T16:11:06.879Z,17.70
2023-04-15T16:13:37.655Z,21.90
2023-04-15T16:16:09.102Z,23.80
2023-04-15T16:18:39.825Z,22.10
2023-04-15T16:21:10.667Z,16.30
2023-04-15T16:23:42.070Z,12.70
2023-04-15T16:26:12.970Z,14.40
2023-04-15T16:31:14.432Z,17.00
2023-04-15T16:33:45.113Z,18.20
2023-04-15T16:36:15.832Z,22.60
2023-04-15T16:38:46.497Z,25.10
2023-04-15T16:41:17.937Z,18.80
2023-04-15T16:43:48.615Z,15.50
2023-04-15T16:46:19.383Z,17.20
2023-04-15T16:48:50.058Z,16.70
2023-04-15T16:51:20.856Z,15.00
2023-04-15T16:53:51.551Z,16.90
2023-04-15T16:56:22.363Z,14.00
2023-04-15T16:58:52.985Z,15.80
2023-04-15T17:01:24.029Z,15.50
2023-04-15T17:03:56.117Z,15.00
2023-04-15T17:06:27.305Z,21.40
2023-04-15T17:08:58.131Z,24.20
2023-04-15T17:11:29.115Z,22.90
2023-04-15T17:13:59.826Z,19.60
2023-04-15T17:16:30.712Z,25.20
2023-04-15T17:19:01.445Z,25.70
2023-04-15T17:21:32.214Z,31.00
2023-04-15T17:24:02.946Z,44.10
2023-04-15T17:26:33.635Z,44.30
2023-04-15T17:29:04.475Z,36.90
2023-04-15T17:31:35.539Z,31.90
2023-04-15T17:34:06.911Z,26.40
2023-04-15T17:36:38.435Z,27.00
2023-04-15T17:39:09.147Z,24.20
2023-04-15T17:41:39.834Z,23.60
2023-04-15T17:44:10.505Z,25.20
2023-04-15T17:46:41.209Z,27.10
2023-04-15T17:49:11.948Z,24.20
2023-04-15T17:51:42.694Z,29.50
2023-04-15T17:54:13.408Z,51.50
2023-04-15T17:56:44.115Z,86.00
2023-04-15T17:59:14.873Z,94.00
2023-04-15T18:01:45.745Z,63.60
2023-04-15T18:06:45.838Z,43.10
2023-04-15T18:09:16.527Z,43.20
2023-04-15T18:11:47.180Z,41.70
2023-04-15T18:14:27.095Z,42.30
2023-04-15T18:17:04.997Z,42.20
2023-04-15T18:19:35.839Z,44.70
2023-04-15T18:22:06.767Z,42.60
2023-04-15T18:24:37.427Z,44.20
2023-04-15T18:29:37.932Z,37.70
2023-04-15T18:32:08.665Z,32.60
2023-04-15T18:34:39.708Z,35.00
2023-04-15T18:37:10.936Z,32.90
2023-04-15T18:39:41.684Z,34.30
2023-04-15T18:44:41.605Z,39.50
2023-04-15T18:47:12.703Z,37.70
2023-04-15T18:49:43.716Z,33.70
2023-04-15T18:52:14.380Z,35.60
2023-04-15T18:54:45.143Z,36.20
2023-04-15T18:59:51.129Z,34.40
2023-04-15T19:02:21.823Z,36.20
2023-04-15T19:04:53.025Z,37.70
2023-04-15T19:07:24.350Z,42.30
2023-04-15T19:09:55.029Z,36.90
2023-04-15T19:12:25.761Z,37.20
2023-04-15T19:14:56.732Z,35.90
2023-04-15T19:17:27.793Z,39.20
2023-04-15T19:19:58.571Z,39.00
2023-04-15T19:22:31.110Z,41.30
2023-04-15T19:25:02.106Z,43.50
2023-04-15T19:27:32.792Z,40.20
2023-04-15T19:30:03.804Z,42.10
2023-04-15T19:32:35.436Z,49.40
2023-04-15T19:35:08.362Z,40.60
2023-04-15T19:37:40.950Z,43.90
2023-04-15T19:42:43.179Z,40.70
2023-04-15T19:45:14.151Z,40.00
2023-04-15T19:50:14.567Z,43.50
2023-04-15T19:52:45.244Z,47.10
2023-04-15T19:55:15.982Z,41.10
2023-04-15T19:57:46.779Z,50.70
2023-04-15T20:00:17.427Z,50.50
2023-04-15T20:02:48.461Z,55.80
2023-04-15T20:05:19.359Z,56.60
2023-04-15T20:07:50.094Z,63.50
2023-04-15T20:10:22.291Z,62.30
2023-04-15T20:12:53.486Z,61.80
2023-04-15T20:15:24.380Z,62.50
2023-04-15T20:17:55.189Z,64.00
2023-04-15T20:20:25.900Z,62.20
2023-04-15T20:22:56.513Z,60.60
2023-04-15T20:25:27.250Z,54.10
2023-04-15T20:28:00.310Z,55.80
2023-04-15T20:30:31.591Z,53.50
2023-04-15T20:33:02.361Z,50.40
2023-04-15T20:35:33.027Z,50.60
2023-04-15T20:38:03.829Z,52.30
2023-04-15T20:43:03.858Z,49.10
2023-04-15T20:45:36.792Z,52.30
2023-04-15T20:48:08.116Z,56.00
2023-04-15T20:50:38.865Z,54.80
2023-04-15T20:53:09.570Z,51.70
2023-04-15T20:55:40.187Z,55.60
2023-04-15T20:58:10.974Z,58.30
2023-04-15T21:00:41.653Z,55.00
2023-04-15T21:03:12.450Z,51.80
2023-04-15T21:05:43.154Z,52.60
2023-04-15T21:08:13.903Z,53.40
2023-04-15T21:10:44.858Z,58.20
2023-04-15T21:15:44.537Z,56.00
2023-04-15T21:18:15.249Z,53.90
2023-04-15T21:20:46.034Z,54.20
2023-04-15T21:23:16.685Z,51.70
2023-04-15T21:25:47.324Z,56.50
2023-04-15T21:28:20.776Z,74.40
2023-04-15T21:30:51.399Z,59.90
2023-04-15T21:33:22.138Z,65.70
2023-04-15T21:35:52.935Z,96.30
2023-04-15T21:38:24.679Z,106.40
2023-04-15T21:40:55.364Z,99.90
2023-04-15T21:43:26.048Z,90.30
2023-04-15T21:46:23.612Z,89.60
2023-04-15T21:48:47.684Z,89.70
2023-04-15T21:53:48.020Z,71.80
2023-04-15T21:56:18.678Z,76.10
2023-04-15T21:58:49.356Z,83.60
2023-04-15T22:01:19.993Z,82.70
2023-04-15T22:03:51.131Z,77.80
2023-04-15T22:06:21.980Z,74.30
2023-04-15T22:08:57.413Z,81.50
2023-04-15T22:11:28.877Z,77.90
2023-04-15T22:14:00.173Z,86.00
2023-04-15T22:16:31.124Z,83.60
2023-04-15T22:19:01.802Z,78.30
2023-04-15T22:21:32.999Z,78.30
2023-04-15T22:24:38.792Z,86.90
2023-04-15T22:26:54.340Z,128.20
2023-04-15T22:29:25.141Z,181.90
2023-04-15T22:31:55.923Z,159.20
2023-04-15T22:34:26.622Z,154.00
2023-04-15T22:36:57.254Z,103.20
2023-04-15T22:39:27.992Z,86.10
2023-04-15T22:41:58.588Z,79.10
2023-04-15T22:44:29.322Z,78.60
2023-04-15T22:46:59.986Z,79.90
2023-04-15T22:49:30.629Z,99.50
2023-04-15T22:52:01.216Z,73.60
2023-04-15T22:54:31.930Z,71.10
2023-04-15T22:57:03.111Z,74.80
2023-04-15T22:59:33.755Z,70.00
2023-04-15T23:02:04.467Z,66.00
2023-04-15T23:04:35.330Z,65.60
2023-04-15T23:09:35.302Z,68.00
2023-04-15T23:12:06.767Z,102.20
2023-04-15T23:14:37.386Z,124.80
2023-04-15T23:17:08.039Z,106.30
2023-04-15T23:19:38.645Z,125.10
2023-04-15T23:22:09.261Z,130.00
2023-04-15T23:24:40.022Z,151.30
2023-04-15T23:27:10.587Z,107.40
2023-04-15T23:29:41.255Z,117.00
2023-04-15T23:32:11.948Z,130.60
2023-04-15T23:34:42.574Z,133.80
2023-04-15T23:37:13.178Z,137.00
2023-04-15T23:39:43.944Z,176.70
2023-04-15T23:42:14.625Z,232.10
2023-04-15T23:44:45.355Z,192.10
2023-04-15T23:47:16.047Z,211.10
2023-04-15T23:49:46.709Z,218.70
2023-04-15T23:52:17.693Z,272.40
2023-04-15T23:54:48.733Z,273.70
2023-04-15T23:57:19.394Z,261.70
2023-04-15T23:59:50.088Z,199.40
